sensor_id;sensor_type;location;lat;lon;timestamp;P1;durP1;ratioP1;P2;durP2;ratioP2
27375;SDS011;14844;51.302;6.354;2023-10-31T00:01:14;10.25;;;8.32;;
27375;SDS011;14844;51.302;6.354;2023-10-31T00:03:40;8.40;;;7.07;;
27375;SDS011;14844;51.302;6.354;2023-10-31T00:06:07;12.15;;;7.70;;
27375;SDS011;14844;51.302;6.354;2023-10-31T00:08:33;10.45;;;7.30;;
27375;SDS011;14844;51.302;6.354;2023-10-31T00:10:59;10.88;;;7.10;;
27375;SDS011;14844;51.302;6.354;2023-10-31T00:13:24;9.50;;;7.75;;
27375;SDS011;14844;51.302;6.354;2023-10-31T00:15:50;9.80;;;7.43;;
27375;SDS011;14844;51.302;6.354;2023-10-31T00:18:16;10.73;;;7.38;;
27375;SDS011;14844;51.302;6.354;2023-10-31T00:20:41;10.15;;;8.05;;
27375;SDS011;14844;51.302;6.354;2023-10-31T00:23:07;10.15;;;8.50;;
27375;SDS011;14844;51.302;6.354;2023-10-31T00:25:32;10.77;;;9.15;;
27375;SDS011;14844;51.302;6.354;2023-10-31T00:27:58;12.00;;;9.00;;
27375;SDS011;14844;51.302;6.354;2023-10-31T00:30:23;11.40;;;9.68;;
27375;SDS011;14844;51.302;6.354;2023-10-31T00:32:49;10.90;;;9.32;;
27375;SDS011;14844;51.302;6.354;2023-10-31T00:35:14;11.23;;;9.07;;
27375;SDS011;14844;51.302;6.354;2023-10-31T00:37:40;11.43;;;8.65;;
27375;SDS011;14844;51.302;6.354;2023-10-31T00:40:06;10.73;;;8.52;;
27375;SDS011;14844;51.302;6.354;2023-10-31T00:42:32;9.93;;;7.30;;
27375;SDS011;14844;51.302;6.354;2023-10-31T00:44:58;9.57;;;7.65;;
27375;SDS011;14844;51.302;6.354;2023-10-31T00:47:24;8.30;;;6.70;;
27375;SDS011;14844;51.302;6.354;2023-10-31T00:49:50;8.80;;;5.80;;
27375;SDS011;14844;51.302;6.354;2023-10-31T00:52:18;8.40;;;6.28;;
27375;SDS011;14844;51.302;6.354;2023-10-31T00:54:43;12.50;;;6.32;;
27375;SDS011;14844;51.302;6.354;2023-10-31T00:57:09;9.90;;;6.10;;
27375;SDS011;14844;51.302;6.354;2023-10-31T00:59:34;8.38;;;6.10;;
27375;SDS011;14844;51.302;6.354;2023-10-31T01:02:00;16.67;;;5.70;;
27375;SDS011;14844;51.302;6.354;2023-10-31T01:04:25;10.35;;;5.55;;
27375;SDS011;14844;51.302;6.354;2023-10-31T01:06:51;9.52;;;5.40;;
27375;SDS011;14844;51.302;6.354;2023-10-31T01:09:17;9.10;;;5.32;;
27375;SDS011;14844;51.302;6.354;2023-10-31T01:11:42;10.48;;;5.13;;
27375;SDS011;14844;51.302;6.354;2023-10-31T01:14:08;10.57;;;5.10;;
27375;SDS011;14844;51.302;6.354;2023-10-31T01:16:33;10.43;;;5.32;;
27375;SDS011;14844;51.302;6.354;2023-10-31T01:18:59;12.60;;;5.97;;
27375;SDS011;14844;51.302;6.354;2023-10-31T01:21:24;12.55;;;6.65;;
27375;SDS011;14844;51.302;6.354;2023-10-31T01:23:50;13.13;;;7.30;;
27375;SDS011;14844;51.302;6.354;2023-10-31T01:26:15;16.05;;;8.90;;
27375;SDS011;14844;51.302;6.354;2023-10-31T01:28:41;16.67;;;9.15;;
27375;SDS011;14844;51.302;6.354;2023-10-31T01:31:06;19.38;;;10.35;;
27375;SDS011;14844;51.302;6.354;2023-10-31T01:33:33;20.02;;;11.02;;
27375;SDS011;14844;51.302;6.354;2023-10-31T01:35:59;18.85;;;10.85;;
27375;SDS011;14844;51.302;6.354;2023-10-31T01:38:24;15.02;;;10.32;;
27375;SDS011;14844;51.302;6.354;2023-10-31T01:40:50;16.67;;;10.95;;
27375;SDS011;14844;51.302;6.354;2023-10-31T01:43:30;16.60;;;11.40;;
27375;SDS011;14844;51.302;6.354;2023-10-31T01:45:57;23.10;;;13.30;;
27375;SDS011;14844;51.302;6.354;2023-10-31T01:48:23;19.55;;;12.50;;
27375;SDS011;14844;51.302;6.354;2023-10-31T01:50:50;22.58;;;14.30;;
27375;SDS011;14844;51.302;6.354;2023-10-31T01:53:16;22.25;;;13.73;;
27375;SDS011;14844;51.302;6.354;2023-10-31T01:55:42;20.88;;;13.60;;
27375;SDS011;14844;51.302;6.354;2023-10-31T01:58:09;22.23;;;12.75;;
27375;SDS011;14844;51.302;6.354;2023-10-31T02:00:36;20.13;;;12.23;;
27375;SDS011;14844;51.302;6.354;2023-10-31T02:03:05;23.38;;;13.02;;
27375;SDS011;14844;51.302;6.354;2023-10-31T02:05:33;21.67;;;11.93;;
27375;SDS011;14844;51.302;6.354;2023-10-31T02:07:59;18.75;;;12.05;;
27375;SDS011;14844;51.302;6.354;2023-10-31T02:10:30;22.23;;;12.90;;
27375;SDS011;14844;51.302;6.354;2023-10-31T02:12:55;23.38;;;13.95;;
27375;SDS011;14844;51.302;6.354;2023-10-31T02:15:21;20.45;;;14.05;;
27375;SDS011;14844;51.302;6.354;2023-10-31T02:17:46;20.42;;;14.30;;
27375;SDS011;14844;51.302;6.354;2023-10-31T02:20:12;22.02;;;16.63;;
27375;SDS011;14844;51.302;6.354;2023-10-31T02:22:37;24.70;;;16.45;;
27375;SDS011;14844;51.302;6.354;2023-10-31T02:25:03;25.92;;;17.25;;
27375;SDS011;14844;51.302;6.354;2023-10-31T02:27:40;23.10;;;16.52;;
27375;SDS011;14844;51.302;6.354;2023-10-31T02:30:05;28.88;;;16.10;;
27375;SDS011;14844;51.302;6.354;2023-10-31T02:32:31;24.33;;;16.17;;
27375;SDS011;14844;51.302;6.354;2023-10-31T02:34:57;25.35;;;17.17;;
27375;SDS011;14844;51.302;6.354;2023-10-31T02:37:22;27.60;;;17.77;;
27375;SDS011;14844;51.302;6.354;2023-10-31T02:39:48;25.40;;;18.98;;
27375;SDS011;14844;51.302;6.354;2023-10-31T02:42:13;30.95;;;19.70;;
27375;SDS011;14844;51.302;6.354;2023-10-31T02:44:39;33.40;;;20.00;;
27375;SDS011;14844;51.302;6.354;2023-10-31T02:47:05;32.35;;;20.48;;
27375;SDS011;14844;51.302;6.354;2023-10-31T02:49:30;35.17;;;21.83;;
27375;SDS011;14844;51.302;6.354;2023-10-31T02:51:56;33.50;;;21.48;;
27375;SDS011;14844;51.302;6.354;2023-10-31T02:54:22;32.65;;;21.38;;
27375;SDS011;14844;51.302;6.354;2023-10-31T02:56:47;34.10;;;20.90;;
27375;SDS011;14844;51.302;6.354;2023-10-31T02:59:13;35.50;;;21.75;;
27375;SDS011;14844;51.302;6.354;2023-10-31T03:01:38;35.53;;;21.77;;
27375;SDS011;14844;51.302;6.354;2023-10-31T03:04:04;33.65;;;22.05;;
27375;SDS011;14844;51.302;6.354;2023-10-31T03:06:29;30.75;;;21.17;;
27375;SDS011;14844;51.302;6.354;2023-10-31T03:08:55;33.65;;;20.80;;
27375;SDS011;14844;51.302;6.354;2023-10-31T03:11:21;41.35;;;20.83;;
27375;SDS011;14844;51.302;6.354;2023-10-31T03:13:48;33.75;;;21.35;;
27375;SDS011;14844;51.302;6.354;2023-10-31T03:16:14;34.08;;;21.27;;
27375;SDS011;14844;51.302;6.354;2023-10-31T03:18:40;31.50;;;21.48;;
27375;SDS011;14844;51.302;6.354;2023-10-31T03:21:05;32.92;;;20.38;;
27375;SDS011;14844;51.302;6.354;2023-10-31T03:23:31;32.22;;;21.58;;
27375;SDS011;14844;51.302;6.354;2023-10-31T03:25:56;32.65;;;21.10;;
27375;SDS011;14844;51.302;6.354;2023-10-31T03:28:22;30.95;;;21.02;;
27375;SDS011;14844;51.302;6.354;2023-10-31T03:30:51;34.20;;;20.48;;
27375;SDS011;14844;51.302;6.354;2023-10-31T03:33:16;32.97;;;20.05;;
27375;SDS011;14844;51.302;6.354;2023-10-31T03:35:43;32.83;;;19.65;;
27375;SDS011;14844;51.302;6.354;2023-10-31T03:38:09;34.03;;;20.63;;
27375;SDS011;14844;51.302;6.354;2023-10-31T04:01:31;29.15;;;15.80;;
27375;SDS011;14844;51.302;6.354;2023-10-31T04:04:27;29.23;;;17.27;;
27375;SDS011;14844;51.302;6.354;2023-10-31T04:10:47;31.98;;;16.05;;
27375;SDS011;14844;51.302;6.354;2023-10-31T04:13:31;25.58;;;14.48;;
27375;SDS011;14844;51.302;6.354;2023-10-31T04:16:25;26.73;;;15.32;;
27375;SDS011;14844;51.302;6.354;2023-10-31T04:18:51;26.83;;;14.40;;
27375;SDS011;14844;51.302;6.354;2023-10-31T04:21:17;23.70;;;14.48;;
27375;SDS011;14844;51.302;6.354;2023-10-31T04:23:43;23.70;;;14.98;;
27375;SDS011;14844;51.302;6.354;2023-10-31T04:26:09;24.20;;;15.23;;
27375;SDS011;14844;51.302;6.354;2023-10-31T04:28:39;22.13;;;15.50;;
27375;SDS011;14844;51.302;6.354;2023-10-31T04:31:10;23.85;;;15.27;;
27375;SDS011;14844;51.302;6.354;2023-10-31T04:37:24;27.20;;;15.98;;
27375;SDS011;14844;51.302;6.354;2023-10-31T05:18:57;20.40;;;12.98;;
27375;SDS011;14844;51.302;6.354;2023-10-31T05:21:35;17.00;;;13.15;;
27375;SDS011;14844;51.302;6.354;2023-10-31T05:24:14;20.50;;;13.27;;
27375;SDS011;14844;51.302;6.354;2023-10-31T05:53:59;22.23;;;17.48;;
27375;SDS011;14844;51.302;6.354;2023-10-31T06:00:30;25.02;;;19.23;;
27375;SDS011;14844;51.302;6.354;2023-10-31T06:03:31;23.15;;;18.02;;
27375;SDS011;14844;51.302;6.354;2023-10-31T06:07:03;26.48;;;19.90;;
27375;SDS011;14844;51.302;6.354;2023-10-31T06:13:41;27.02;;;20.40;;
27375;SDS011;14844;51.302;6.354;2023-10-31T06:16:10;26.25;;;19.85;;
27375;SDS011;14844;51.302;6.354;2023-10-31T06:18:46;27.45;;;20.92;;
27375;SDS011;14844;51.302;6.354;2023-10-31T06:25:46;26.58;;;20.90;;
27375;SDS011;14844;51.302;6.354;2023-10-31T06:28:15;30.27;;;22.08;;
27375;SDS011;14844;51.302;6.354;2023-10-31T06:30:41;28.63;;;21.95;;
27375;SDS011;14844;51.302;6.354;2023-10-31T06:33:06;30.92;;;22.83;;
27375;SDS011;14844;51.302;6.354;2023-10-31T06:35:33;26.85;;;22.13;;
27375;SDS011;14844;51.302;6.354;2023-10-31T06:37:59;26.45;;;21.92;;
27375;SDS011;14844;51.302;6.354;2023-10-31T06:40:26;27.00;;;21.60;;
27375;SDS011;14844;51.302;6.354;2023-10-31T06:42:51;24.08;;;20.75;;
27375;SDS011;14844;51.302;6.354;2023-10-31T06:45:17;25.33;;;20.67;;
27375;SDS011;14844;51.302;6.354;2023-10-31T06:47:43;23.95;;;19.20;;
27375;SDS011;14844;51.302;6.354;2023-10-31T06:50:08;24.73;;;20.17;;
27375;SDS011;14844;51.302;6.354;2023-10-31T06:52:34;27.00;;;19.85;;
27375;SDS011;14844;51.302;6.354;2023-10-31T06:55:00;23.17;;;19.70;;
27375;SDS011;14844;51.302;6.354;2023-10-31T06:57:25;24.92;;;21.00;;
27375;SDS011;14844;51.302;6.354;2023-10-31T06:59:51;26.90;;;20.67;;
27375;SDS011;14844;51.302;6.354;2023-10-31T07:02:17;23.58;;;18.83;;
27375;SDS011;14844;51.302;6.354;2023-10-31T07:04:43;25.05;;;19.92;;
27375;SDS011;14844;51.302;6.354;2023-10-31T07:07:08;24.15;;;19.42;;
27375;SDS011;14844;51.302;6.354;2023-10-31T07:09:34;29.63;;;19.58;;
27375;SDS011;14844;51.302;6.354;2023-10-31T07:12:00;23.48;;;19.25;;
27375;SDS011;14844;51.302;6.354;2023-10-31T07:14:25;22.58;;;18.73;;
27375;SDS011;14844;51.302;6.354;2023-10-31T07:16:51;25.70;;;20.13;;
27375;SDS011;14844;51.302;6.354;2023-10-31T07:19:16;25.02;;;19.45;;
27375;SDS011;14844;51.302;6.354;2023-10-31T07:21:42;24.20;;;17.83;;
27375;SDS011;14844;51.302;6.354;2023-10-31T07:24:08;26.48;;;17.30;;
27375;SDS011;14844;51.302;6.354;2023-10-31T07:26:34;21.88;;;16.48;;
27375;SDS011;14844;51.302;6.354;2023-10-31T07:29:00;20.38;;;15.40;;
27375;SDS011;14844;51.302;6.354;2023-10-31T07:31:26;21.27;;;16.05;;
27375;SDS011;14844;51.302;6.354;2023-10-31T07:33:51;20.75;;;15.05;;
27375;SDS011;14844;51.302;6.354;2023-10-31T07:36:17;15.95;;;12.52;;
27375;SDS011;14844;51.302;6.354;2023-10-31T07:38:43;16.30;;;12.73;;
27375;SDS011;14844;51.302;6.354;2023-10-31T07:41:08;13.45;;;12.02;;
27375;SDS011;14844;51.302;6.354;2023-10-31T07:43:34;13.55;;;10.85;;
27375;SDS011;14844;51.302;6.354;2023-10-31T07:45:59;20.00;;;11.77;;
27375;SDS011;14844;51.302;6.354;2023-10-31T07:48:25;13.35;;;10.07;;
27375;SDS011;14844;51.302;6.354;2023-10-31T07:50:51;11.70;;;9.65;;
27375;SDS011;14844;51.302;6.354;2023-10-31T07:53:16;15.20;;;10.38;;
27375;SDS011;14844;51.302;6.354;2023-10-31T07:55:42;12.68;;;9.55;;
27375;SDS011;14844;51.302;6.354;2023-10-31T07:58:08;13.63;;;10.18;;
27375;SDS011;14844;51.302;6.354;2023-10-31T08:00:34;17.67;;;9.95;;
27375;SDS011;14844;51.302;6.354;2023-10-31T08:03:01;13.00;;;9.20;;
27375;SDS011;14844;51.302;6.354;2023-10-31T08:05:26;15.05;;;9.52;;
27375;SDS011;14844;51.302;6.354;2023-10-31T08:07:52;10.55;;;8.60;;
27375;SDS011;14844;51.302;6.354;2023-10-31T08:10:18;11.82;;;8.38;;
27375;SDS011;14844;51.302;6.354;2023-10-31T08:12:43;11.88;;;8.60;;
27375;SDS011;14844;51.302;6.354;2023-10-31T08:15:09;9.82;;;8.50;;
27375;SDS011;14844;51.302;6.354;2023-10-31T08:17:35;12.57;;;8.40;;
27375;SDS011;14844;51.302;6.354;2023-10-31T08:20:01;10.65;;;8.38;;
27375;SDS011;14844;51.302;6.354;2023-10-31T08:22:29;12.93;;;8.75;;
27375;SDS011;14844;51.302;6.354;2023-10-31T08:24:55;10.98;;;8.63;;
27375;SDS011;14844;51.302;6.354;2023-10-31T08:27:20;12.75;;;8.73;;
27375;SDS011;14844;51.302;6.354;2023-10-31T08:29:46;11.82;;;8.98;;
27375;SDS011;14844;51.302;6.354;2023-10-31T08:32:12;14.65;;;9.15;;
27375;SDS011;14844;51.302;6.354;2023-10-31T08:34:37;19.05;;;8.70;;
27375;SDS011;14844;51.302;6.354;2023-10-31T08:37:03;13.20;;;9.27;;
27375;SDS011;14844;51.302;6.354;2023-10-31T08:39:29;12.57;;;9.77;;
27375;SDS011;14844;51.302;6.354;2023-10-31T08:41:56;12.75;;;9.48;;
27375;SDS011;14844;51.302;6.354;2023-10-31T08:44:22;17.00;;;9.70;;
27375;SDS011;14844;51.302;6.354;2023-10-31T08:46:48;13.75;;;10.38;;
27375;SDS011;14844;51.302;6.354;2023-10-31T08:49:14;14.80;;;10.27;;
27375;SDS011;14844;51.302;6.354;2023-10-31T08:51:41;17.15;;;10.68;;
27375;SDS011;14844;51.302;6.354;2023-10-31T08:54:07;13.88;;;11.15;;
27375;SDS011;14844;51.302;6.354;2023-10-31T08:56:33;15.40;;;10.68;;
27375;SDS011;14844;51.302;6.354;2023-10-31T08:58:59;13.73;;;10.43;;
27375;SDS011;14844;51.302;6.354;2023-10-31T09:01:25;15.15;;;9.70;;
27375;SDS011;14844;51.302;6.354;2023-10-31T09:03:52;14.68;;;10.00;;
27375;SDS011;14844;51.302;6.354;2023-10-31T09:06:17;13.98;;;9.52;;
27375;SDS011;14844;51.302;6.354;2023-10-31T09:08:43;13.07;;;9.63;;
27375;SDS011;14844;51.302;6.354;2023-10-31T09:11:09;11.27;;;9.13;;
27375;SDS011;14844;51.302;6.354;2023-10-31T09:13:34;12.75;;;9.30;;
27375;SDS011;14844;51.302;6.354;2023-10-31T09:16:00;15.55;;;9.32;;
27375;SDS011;14844;51.302;6.354;2023-10-31T09:18:27;13.48;;;8.75;;
27375;SDS011;14844;51.302;6.354;2023-10-31T09:20:52;19.90;;;9.15;;
27375;SDS011;14844;51.302;6.354;2023-10-31T09:23:18;13.55;;;8.65;;
27375;SDS011;14844;51.302;6.354;2023-10-31T09:25:44;14.30;;;9.20;;
27375;SDS011;14844;51.302;6.354;2023-10-31T09:28:10;12.23;;;9.43;;
27375;SDS011;14844;51.302;6.354;2023-10-31T09:30:36;13.57;;;9.35;;
27375;SDS011;14844;51.302;6.354;2023-10-31T09:33:01;11.65;;;8.65;;
27375;SDS011;14844;51.302;6.354;2023-10-31T09:35:27;12.45;;;9.27;;
27375;SDS011;14844;51.302;6.354;2023-10-31T09:37:53;12.32;;;8.32;;
27375;SDS011;14844;51.302;6.354;2023-10-31T09:40:20;11.13;;;8.35;;
27375;SDS011;14844;51.302;6.354;2023-10-31T09:42:46;10.98;;;7.35;;
27375;SDS011;14844;51.302;6.354;2023-10-31T09:45:12;11.85;;;7.47;;
27375;SDS011;14844;51.302;6.354;2023-10-31T09:47:38;10.38;;;7.22;;
27375;SDS011;14844;51.302;6.354;2023-10-31T09:50:05;11.18;;;6.88;;
27375;SDS011;14844;51.302;6.354;2023-10-31T09:52:33;9.05;;;6.90;;
27375;SDS011;14844;51.302;6.354;2023-10-31T09:55:00;12.98;;;7.63;;
27375;SDS011;14844;51.302;6.354;2023-10-31T09:57:26;12.20;;;7.18;;
27375;SDS011;14844;51.302;6.354;2023-10-31T09:59:52;11.40;;;7.40;;
27375;SDS011;14844;51.302;6.354;2023-10-31T10:02:17;8.55;;;6.18;;
27375;SDS011;14844;51.302;6.354;2023-10-31T10:04:43;8.90;;;5.80;;
27375;SDS011;14844;51.302;6.354;2023-10-31T10:07:08;8.98;;;5.88;;
27375;SDS011;14844;51.302;6.354;2023-10-31T10:09:41;9.77;;;6.10;;
27375;SDS011;14844;51.302;6.354;2023-10-31T10:12:08;8.10;;;5.63;;
27375;SDS011;14844;51.302;6.354;2023-10-31T10:14:36;10.15;;;5.53;;
27375;SDS011;14844;51.302;6.354;2023-10-31T10:17:02;10.45;;;5.63;;
27375;SDS011;14844;51.302;6.354;2023-10-31T10:19:43;10.85;;;5.75;;
27375;SDS011;14844;51.302;6.354;2023-10-31T10:22:08;16.08;;;6.22;;
27375;SDS011;14844;51.302;6.354;2023-10-31T10:24:35;11.30;;;6.40;;
27375;SDS011;14844;51.302;6.354;2023-10-31T10:27:04;7.82;;;5.90;;
27375;SDS011;14844;51.302;6.354;2023-10-31T10:29:30;8.82;;;6.35;;
27375;SDS011;14844;51.302;6.354;2023-10-31T10:31:56;8.35;;;6.28;;
27375;SDS011;14844;51.302;6.354;2023-10-31T10:34:22;9.10;;;5.43;;
27375;SDS011;14844;51.302;6.354;2023-10-31T10:36:49;13.00;;;5.95;;
27375;SDS011;14844;51.302;6.354;2023-10-31T10:39:21;7.72;;;4.63;;
27375;SDS011;14844;51.302;6.354;2023-10-31T10:41:57;9.82;;;4.45;;
27375;SDS011;14844;51.302;6.354;2023-10-31T10:44:35;6.70;;;4.13;;
27375;SDS011;14844;51.302;6.354;2023-10-31T10:47:02;7.70;;;3.95;;
27375;SDS011;14844;51.302;6.354;2023-10-31T10:49:32;8.38;;;3.78;;
27375;SDS011;14844;51.302;6.354;2023-10-31T10:52:10;10.20;;;3.85;;
27375;SDS011;14844;51.302;6.354;2023-10-31T10:54:41;7.75;;;3.95;;
27375;SDS011;14844;51.302;6.354;2023-10-31T10:57:15;6.00;;;3.40;;
27375;SDS011;14844;51.302;6.354;2023-10-31T11:00:04;6.60;;;3.30;;
27375;SDS011;14844;51.302;6.354;2023-10-31T11:02:34;4.88;;;2.97;;
27375;SDS011;14844;51.302;6.354;2023-10-31T11:05:07;4.97;;;2.60;;
27375;SDS011;14844;51.302;6.354;2023-10-31T11:07:34;4.57;;;2.88;;
27375;SDS011;14844;51.302;6.354;2023-10-31T11:10:03;7.63;;;3.00;;
27375;SDS011;14844;51.302;6.354;2023-10-31T11:12:31;8.60;;;3.83;;
27375;SDS011;14844;51.302;6.354;2023-10-31T11:14:58;4.97;;;2.80;;
27375;SDS011;14844;51.302;6.354;2023-10-31T11:19:59;6.85;;;2.47;;
27375;SDS011;14844;51.302;6.354;2023-10-31T11:22:25;4.10;;;2.08;;
27375;SDS011;14844;51.302;6.354;2023-10-31T11:25:01;7.35;;;2.40;;
27375;SDS011;14844;51.302;6.354;2023-10-31T11:27:27;6.75;;;2.63;;
27375;SDS011;14844;51.302;6.354;2023-10-31T11:29:54;7.32;;;2.35;;
27375;SDS011;14844;51.302;6.354;2023-10-31T11:32:20;7.57;;;2.30;;
27375;SDS011;14844;51.302;6.354;2023-10-31T11:34:47;5.53;;;2.17;;
27375;SDS011;14844;51.302;6.354;2023-10-31T11:37:22;7.20;;;2.10;;
27375;SDS011;14844;51.302;6.354;2023-10-31T11:42:56;6.43;;;2.23;;
27375;SDS011;14844;51.302;6.354;2023-10-31T11:45:36;4.00;;;2.03;;
27375;SDS011;14844;51.302;6.354;2023-10-31T11:48:09;6.90;;;2.47;;
27375;SDS011;14844;51.302;6.354;2023-10-31T11:50:36;7.63;;;2.45;;
27375;SDS011;14844;51.302;6.354;2023-10-31T11:55:34;5.32;;;2.10;;
27375;SDS011;14844;51.302;6.354;2023-10-31T12:00:50;8.02;;;2.67;;
27375;SDS011;14844;51.302;6.354;2023-10-31T12:03:17;7.03;;;2.00;;
27375;SDS011;14844;51.302;6.354;2023-10-31T12:05:53;8.85;;;1.98;;
27375;SDS011;14844;51.302;6.354;2023-10-31T12:08:25;3.85;;;1.70;;
27375;SDS011;14844;51.302;6.354;2023-10-31T12:11:06;5.13;;;1.88;;
27375;SDS011;14844;51.302;6.354;2023-10-31T12:13:37;5.23;;;2.27;;
27375;SDS011;14844;51.302;6.354;2023-10-31T12:16:05;8.18;;;2.42;;
27375;SDS011;14844;51.302;6.354;2023-10-31T12:18:33;4.65;;;2.08;;
27375;SDS011;14844;51.302;6.354;2023-10-31T12:21:00;4.85;;;1.60;;
27375;SDS011;14844;51.302;6.354;2023-10-31T12:23:26;4.97;;;1.88;;
27375;SDS011;14844;51.302;6.354;2023-10-31T12:25:52;5.32;;;2.20;;
27375;SDS011;14844;51.302;6.354;2023-10-31T12:28:19;7.22;;;2.22;;
27375;SDS011;14844;51.302;6.354;2023-10-31T12:30:45;4.93;;;1.90;;
27375;SDS011;14844;51.302;6.354;2023-10-31T12:33:12;4.90;;;1.63;;
27375;SDS011;14844;51.302;6.354;2023-10-31T12:35:38;7.65;;;1.70;;
27375;SDS011;14844;51.302;6.354;2023-10-31T12:38:04;9.77;;;1.95;;
27375;SDS011;14844;51.302;6.354;2023-10-31T12:40:30;4.20;;;1.60;;
27375;SDS011;14844;51.302;6.354;2023-10-31T12:42:56;6.72;;;1.60;;
27375;SDS011;14844;51.302;6.354;2023-10-31T12:45:26;5.82;;;1.58;;
27375;SDS011;14844;51.302;6.354;2023-10-31T12:50:29;6.38;;;1.20;;
27375;SDS011;14844;51.302;6.354;2023-10-31T12:52:55;5.20;;;1.45;;
27375;SDS011;14844;51.302;6.354;2023-10-31T12:55:22;3.38;;;1.30;;
27375;SDS011;14844;51.302;6.354;2023-10-31T12:57:50;4.20;;;1.40;;
27375;SDS011;14844;51.302;6.354;2023-10-31T13:00:17;4.30;;;1.50;;
27375;SDS011;14844;51.302;6.354;2023-10-31T13:02:58;6.05;;;1.30;;
27375;SDS011;14844;51.302;6.354;2023-10-31T13:05:26;6.53;;;1.30;;
27375;SDS011;14844;51.302;6.354;2023-10-31T13:07:52;6.57;;;1.90;;
27375;SDS011;14844;51.302;6.354;2023-10-31T13:10:20;7.65;;;2.05;;
27375;SDS011;14844;51.302;6.354;2023-10-31T13:12:47;6.22;;;2.70;;
27375;SDS011;14844;51.302;6.354;2023-10-31T13:15:15;7.22;;;2.20;;
27375;SDS011;14844;51.302;6.354;2023-10-31T13:17:41;7.65;;;1.70;;
27375;SDS011;14844;51.302;6.354;2023-10-31T13:20:11;6.18;;;1.90;;
27375;SDS011;14844;51.302;6.354;2023-10-31T13:22:38;7.45;;;2.67;;
27375;SDS011;14844;51.302;6.354;2023-10-31T13:25:05;3.92;;;1.80;;
27375;SDS011;14844;51.302;6.354;2023-10-31T13:27:39;5.45;;;1.50;;
27375;SDS011;14844;51.302;6.354;2023-10-31T13:30:07;4.10;;;1.50;;
27375;SDS011;14844;51.302;6.354;2023-10-31T13:32:35;9.25;;;1.63;;
27375;SDS011;14844;51.302;6.354;2023-10-31T13:35:01;5.38;;;2.08;;
27375;SDS011;14844;51.302;6.354;2023-10-31T13:37:27;6.13;;;1.88;;
27375;SDS011;14844;51.302;6.354;2023-10-31T13:39:53;5.55;;;2.28;;
27375;SDS011;14844;51.302;6.354;2023-10-31T13:42:19;5.72;;;1.48;;
27375;SDS011;14844;51.302;6.354;2023-10-31T13:44:44;5.13;;;1.48;;
27375;SDS011;14844;51.302;6.354;2023-10-31T13:47:10;6.00;;;1.77;;
27375;SDS011;14844;51.302;6.354;2023-10-31T13:49:35;6.50;;;2.00;;
27375;SDS011;14844;51.302;6.354;2023-10-31T13:52:04;8.20;;;1.88;;
27375;SDS011;14844;51.302;6.354;2023-10-31T13:54:31;4.68;;;1.70;;
27375;SDS011;14844;51.302;6.354;2023-10-31T13:56:59;9.55;;;2.30;;
27375;SDS011;14844;51.302;6.354;2023-10-31T13:59:26;5.78;;;1.70;;
27375;SDS011;14844;51.302;6.354;2023-10-31T14:01:52;6.38;;;1.50;;
27375;SDS011;14844;51.302;6.354;2023-10-31T14:04:18;9.90;;;2.00;;
27375;SDS011;14844;51.302;6.354;2023-10-31T14:06:44;7.40;;;1.48;;
27375;SDS011;14844;51.302;6.354;2023-10-31T14:09:11;7.55;;;1.80;;
27375;SDS011;14844;51.302;6.354;2023-10-31T14:11:37;6.78;;;1.58;;
27375;SDS011;14844;51.302;6.354;2023-10-31T14:14:04;7.22;;;1.83;;
27375;SDS011;14844;51.302;6.354;2023-10-31T14:16:34;6.70;;;1.80;;
27375;SDS011;14844;51.302;6.354;2023-10-31T14:19:00;4.35;;;1.38;;
27375;SDS011;14844;51.302;6.354;2023-10-31T14:21:27;4.53;;;1.40;;
27375;SDS011;14844;51.302;6.354;2023-10-31T14:23:53;7.38;;;1.40;;
27375;SDS011;14844;51.302;6.354;2023-10-31T14:26:19;8.20;;;1.63;;
27375;SDS011;14844;51.302;6.354;2023-10-31T14:28:46;4.88;;;1.73;;
27375;SDS011;14844;51.302;6.354;2023-10-31T14:31:11;15.07;;;1.90;;
27375;SDS011;14844;51.302;6.354;2023-10-31T14:33:37;5.53;;;1.70;;
27375;SDS011;14844;51.302;6.354;2023-10-31T14:36:03;7.60;;;1.50;;
27375;SDS011;14844;51.302;6.354;2023-10-31T14:38:28;8.88;;;1.80;;
27375;SDS011;14844;51.302;6.354;2023-10-31T14:40:54;9.07;;;1.77;;
27375;SDS011;14844;51.302;6.354;2023-10-31T14:43:20;7.10;;;1.50;;
27375;SDS011;14844;51.302;6.354;2023-10-31T14:45:45;5.53;;;1.70;;
27375;SDS011;14844;51.302;6.354;2023-10-31T14:48:11;7.80;;;1.77;;
27375;SDS011;14844;51.302;6.354;2023-10-31T14:50:36;7.97;;;1.83;;
27375;SDS011;14844;51.302;6.354;2023-10-31T14:53:03;9.13;;;1.67;;
27375;SDS011;14844;51.302;6.354;2023-10-31T14:55:30;10.43;;;2.00;;
27375;SDS011;14844;51.302;6.354;2023-10-31T14:57:56;7.95;;;1.67;;
27375;SDS011;14844;51.302;6.354;2023-10-31T15:00:21;6.10;;;1.45;;
27375;SDS011;14844;51.302;6.354;2023-10-31T15:02:47;6.70;;;1.75;;
27375;SDS011;14844;51.302;6.354;2023-10-31T15:05:13;8.32;;;1.80;;
27375;SDS011;14844;51.302;6.354;2023-10-31T15:07:38;9.52;;;1.95;;
27375;SDS011;14844;51.302;6.354;2023-10-31T15:10:05;7.57;;;1.60;;
27375;SDS011;14844;51.302;6.354;2023-10-31T15:12:31;9.75;;;1.77;;
27375;SDS011;14844;51.302;6.354;2023-10-31T15:14:57;10.30;;;2.40;;
27375;SDS011;14844;51.302;6.354;2023-10-31T15:17:23;8.32;;;2.08;;
27375;SDS011;14844;51.302;6.354;2023-10-31T15:19:48;9.30;;;2.47;;
27375;SDS011;14844;51.302;6.354;2023-10-31T15:22:14;7.22;;;2.00;;
27375;SDS011;14844;51.302;6.354;2023-10-31T15:24:40;7.10;;;1.92;;
27375;SDS011;14844;51.302;6.354;2023-10-31T15:27:05;9.30;;;2.30;;
27375;SDS011;14844;51.302;6.354;2023-10-31T15:29:31;12.70;;;2.60;;
27375;SDS011;14844;51.302;6.354;2023-10-31T15:31:57;9.20;;;2.20;;
27375;SDS011;14844;51.302;6.354;2023-10-31T15:34:23;17.75;;;7.60;;
27375;SDS011;14844;51.302;6.354;2023-10-31T15:36:48;54.03;;;24.25;;
27375;SDS011;14844;51.302;6.354;2023-10-31T15:39:14;58.13;;;31.25;;
27375;SDS011;14844;51.302;6.354;2023-10-31T15:41:39;31.73;;;18.90;;
27375;SDS011;14844;51.302;6.354;2023-10-31T15:44:06;16.20;;;7.60;;
27375;SDS011;14844;51.302;6.354;2023-10-31T15:46:32;10.15;;;3.40;;
27375;SDS011;14844;51.302;6.354;2023-10-31T15:49:00;9.05;;;3.00;;
27375;SDS011;14844;51.302;6.354;2023-10-31T15:51:27;9.38;;;2.90;;
27375;SDS011;14844;51.302;6.354;2023-10-31T15:53:52;9.85;;;3.67;;
27375;SDS011;14844;51.302;6.354;2023-10-31T15:56:18;8.10;;;3.40;;
27375;SDS011;14844;51.302;6.354;2023-10-31T15:58:43;15.45;;;3.63;;
27375;SDS011;14844;51.302;6.354;2023-10-31T16:01:09;11.95;;;3.47;;
27375;SDS011;14844;51.302;6.354;2023-10-31T16:03:35;8.93;;;3.25;;
27375;SDS011;14844;51.302;6.354;2023-10-31T16:06:00;8.23;;;3.38;;
27375;SDS011;14844;51.302;6.354;2023-10-31T16:08:26;12.90;;;3.70;;
27375;SDS011;14844;51.302;6.354;2023-10-31T16:10:51;11.10;;;3.58;;
27375;SDS011;14844;51.302;6.354;2023-10-31T16:13:17;14.30;;;3.58;;
27375;SDS011;14844;51.302;6.354;2023-10-31T16:15:43;14.18;;;4.10;;
27375;SDS011;14844;51.302;6.354;2023-10-31T16:18:09;11.10;;;4.38;;
27375;SDS011;14844;51.302;6.354;2023-10-31T16:20:36;9.55;;;4.00;;
27375;SDS011;14844;51.302;6.354;2023-10-31T16:23:01;10.32;;;3.85;;
27375;SDS011;14844;51.302;6.354;2023-10-31T16:25:29;10.77;;;4.20;;
27375;SDS011;14844;51.302;6.354;2023-10-31T16:27:57;9.35;;;3.60;;
27375;SDS011;14844;51.302;6.354;2023-10-31T16:30:23;8.75;;;3.60;;
27375;SDS011;14844;51.302;6.354;2023-10-31T16:32:48;9.18;;;4.13;;
27375;SDS011;14844;51.302;6.354;2023-10-31T16:35:14;8.15;;;3.47;;
27375;SDS011;14844;51.302;6.354;2023-10-31T16:37:40;8.73;;;3.33;;